createdAt,value
2023-03-08T00:22:28.769Z,99699.41
2023-03-08T00:24:56.780Z,99700.91
2023-03-08T00:27:24.531Z,99706.09
2023-03-08T00:29:52.268Z,99703.28
2023-03-08T00:32:20.040Z,99699.50
2023-03-08T00:34:52.367Z,99711.03
2023-03-08T00:37:20.399Z,99715.47
2023-03-08T00:39:53.127Z,99716.09
2023-03-08T00:42:21.644Z,99717.22
2023-03-08T00:44:49.626Z,99705.31
2023-03-08T00:47:18.145Z,99708.78
2023-03-08T00:49:46.213Z,99711.47
2023-03-08T00:52:15.485Z,99707.91
2023-03-08T00:54:45.268Z,99713.31
2023-03-08T00:57:16.294Z,99703.28
2023-03-08T00:59:44.568Z,99703.38
2023-03-08T01:02:14.127Z,99698.06
2023-03-08T01:04:41.941Z,99692.81
2023-03-08T01:07:09.717Z,99691.94
2023-03-08T01:09:39.385Z,99681.25
2023-03-08T01:12:07.406Z,99679.53
2023-03-08T01:14:36.666Z,99681.34
2023-03-08T01:17:04.473Z,99675.19
2023-03-08T01:19:32.315Z,99671.63
2023-03-08T01:22:00.070Z,99668.06
2023-03-08T01:24:28.157Z,99664.50
2023-03-08T01:27:00.846Z,99664.66
2023-03-08T01:29:28.727Z,99660.13
2023-03-08T01:32:00.312Z,99662.81
2023-03-08T01:34:28.276Z,99661.94
2023-03-08T01:36:56.438Z,99663.78
2023-03-08T01:39:24.243Z,99668.22
2023-03-08T01:41:52.057Z,99662.81
2023-03-08T01:44:22.593Z,99653.72
2023-03-08T01:46:51.424Z,99648.31
2023-03-08T01:49:34.433Z,99640.97
2023-03-08T01:52:08.051Z,99640.97
2023-03-08T01:54:40.751Z,99641.94
2023-03-08T01:57:16.137Z,99636.44
2023-03-08T01:59:45.008Z,99632.78
2023-03-08T02:02:12.747Z,99631.06
2023-03-08T02:04:42.771Z,99625.66
2023-03-08T02:07:13.669Z,99612.38
2023-03-08T02:09:43.039Z,99604.28
2023-03-08T02:12:14.295Z,99595.22
2023-03-08T02:14:43.682Z,99593.63
2023-03-08T02:17:12.802Z,99591.91
2023-03-08T02:19:47.073Z,99599.03
2023-03-08T02:22:16.880Z,99588.34
2023-03-08T02:24:45.978Z,99584.78
2023-03-08T02:27:18.306Z,99592.88
2023-03-08T02:29:46.349Z,99589.41
2023-03-08T02:32:15.786Z,99591.03
2023-03-08T02:34:43.833Z,99598.16
2023-03-08T02:37:13.446Z,99599.03
2023-03-08T02:39:41.292Z,99591.78
2023-03-08T02:42:10.469Z,99591.66
2023-03-08T02:44:38.196Z,99589.97
2023-03-08T02:47:06.291Z,99580.84
2023-03-08T02:49:34.321Z,99573.63
2023-03-08T02:52:02.036Z,99578.16
2023-03-08T02:54:29.919Z,99565.44
2023-03-08T02:56:57.723Z,99565.53
2023-03-08T02:59:27.572Z,99560.03
2023-03-08T03:01:57.205Z,99568.22
2023-03-08T03:04:25.232Z,99565.53
2023-03-08T03:06:53.335Z,99561.00
2023-03-08T03:09:21.533Z,99567.25
2023-03-08T03:11:49.659Z,99566.28
2023-03-08T03:14:18.128Z,99551.94
2023-03-08T03:16:48.132Z,99542.88
2023-03-08T03:19:16.035Z,99547.41
2023-03-08T03:21:43.741Z,99540.16
2023-03-08T03:24:11.534Z,99536.50
2023-03-08T03:26:48.071Z,99537.47
2023-03-08T03:29:16.111Z,99533.91
2023-03-08T03:31:45.611Z,99523.88
2023-03-08T03:34:16.500Z,99523.00
2023-03-08T03:36:45.828Z,99515.88
2023-03-08T03:39:13.877Z,99508.75
2023-03-08T03:41:43.225Z,99518.69
2023-03-08T03:44:13.836Z,99519.66
2023-03-08T03:46:44.379Z,99521.50
2023-03-08T03:49:16.500Z,99512.53
2023-03-08T03:51:46.276Z,99501.03
2023-03-08T03:54:27.333Z,99519.03
2023-03-08T03:57:00.291Z,99516.44
2023-03-08T03:59:33.954Z,99511.16
2023-03-08T04:02:02.866Z,99505.00
2023-03-08T04:04:46.192Z,99497.06
2023-03-08T04:07:15.911Z,99489.06
2023-03-08T04:09:51.058Z,99481.09
2023-03-08T04:12:18.977Z,99498.13
2023-03-08T04:14:46.731Z,99485.63
2023-03-08T04:17:15.508Z,99490.16
2023-03-08T04:19:50.879Z,99478.50
2023-03-08T04:22:20.190Z,99477.72
2023-03-08T04:24:59.324Z,99471.63
2023-03-08T04:27:35.767Z,99461.78
2023-03-08T04:30:04.794Z,99462.75
2023-03-08T04:32:33.660Z,99462.66
2023-03-08T04:35:02.965Z,99461.91
2023-03-08T04:37:33.004Z,99455.84
2023-03-08T04:40:14.168Z,99455.00
2023-03-08T04:42:48.997Z,99448.88
2023-03-08T04:45:20.425Z,99447.03
2023-03-08T04:47:48.386Z,99440.78
2023-03-08T04:50:18.388Z,99433.56
2023-03-08T04:52:46.332Z,99426.53
2023-03-08T04:55:14.063Z,99422.00
2023-03-08T04:57:41.861Z,99416.72
2023-03-08T05:00:11.195Z,99418.56
2023-03-08T05:02:40.584Z,99413.38
2023-03-08T05:05:13.562Z,99404.66
2023-03-08T05:07:43.656Z,99409.19
2023-03-08T05:10:12.124Z,99404.66
2023-03-08T05:12:41.623Z,99389.56
2023-03-08T05:15:10.997Z,99390.53
2023-03-08T05:17:38.753Z,99390.69
2023-03-08T05:20:08.378Z,99396.19
2023-03-08T05:22:56.638Z,99375.69
2023-03-08T05:25:30.872Z,99362.31
2023-03-08T05:27:59.400Z,99362.31
2023-03-08T05:30:27.276Z,99365.00
2023-03-08T05:32:55.245Z,99361.56
2023-03-08T05:35:23.114Z,99364.38
2023-03-08T05:37:52.159Z,99358.13
2023-03-08T05:40:20.042Z,99350.25
2023-03-08T05:42:49.938Z,99346.69
2023-03-08T05:45:18.012Z,99344.00
2023-03-08T05:47:46.130Z,99340.44
2023-03-08T05:50:14.094Z,99330.63
2023-03-08T05:52:43.523Z,99330.63
2023-03-08T05:55:15.120Z,99328.81
2023-03-08T05:57:43.527Z,99317.16
2023-03-08T06:00:15.029Z,99312.75
2023-03-08T06:02:50.245Z,99298.53
2023-03-08T06:05:19.128Z,99295.94
2023-03-08T06:07:47.811Z,99287.00
2023-03-08T06:10:16.918Z,99289.81
2023-03-08T06:12:45.779Z,99291.63
2023-03-08T06:15:18.417Z,99278.16
2023-03-08T06:17:46.265Z,99269.31
2023-03-08T06:20:18.228Z,99268.47
2023-03-08T06:22:49.229Z,99242.63
2023-03-08T06:25:18.340Z,99248.88
2023-03-08T06:27:47.278Z,99240.03
2023-03-08T06:30:27.551Z,99232.91
2023-03-08T06:32:55.833Z,99227.63
2023-03-08T06:35:23.789Z,99219.91
2023-03-08T06:37:57.181Z,99226.06
2023-03-08T06:40:25.022Z,99221.75
2023-03-08T06:42:53.213Z,99220.03
2023-03-08T06:45:22.082Z,99213.78
2023-03-08T06:47:51.176Z,99213.78
2023-03-08T06:50:19.216Z,99216.56
2023-03-08T06:52:49.391Z,99205.91
2023-03-08T06:55:21.541Z,99205.91
2023-03-08T06:57:55.520Z,99202.13
2023-03-08T07:00:24.117Z,99203.00
2023-03-08T07:02:53.670Z,99195.03
2023-03-08T07:05:21.610Z,99188.66
2023-03-08T07:07:49.441Z,99180.69
2023-03-08T07:10:19.539Z,99170.66
2023-03-08T07:12:49.216Z,99178.75
2023-03-08T07:15:19.428Z,99185.84
2023-03-08T07:17:48.358Z,99184.13
2023-03-08T07:20:19.283Z,99174.22
2023-03-08T07:22:47.840Z,99168.81
2023-03-08T07:25:17.003Z,99164.28
2023-03-08T07:27:44.959Z,99171.53
2023-03-08T07:30:15.456Z,99166.25
2023-03-08T07:32:43.923Z,99159.13
2023-03-08T07:35:13.704Z,99156.56
2023-03-08T07:37:45.791Z,99155.72
2023-03-08T07:40:15.593Z,99157.78
2023-03-08T07:42:43.320Z,99153.47
2023-03-08T07:45:23.899Z,99141.09
2023-03-08T07:47:52.429Z,99141.22
2023-03-08T07:50:20.759Z,99136.69
2023-03-08T07:52:50.253Z,99131.19
2023-03-08T07:55:18.830Z,99117.19
2023-03-08T07:57:46.605Z,99116.44
2023-03-08T08:00:15.332Z,99115.47
2023-03-08T08:02:43.151Z,99111.31
2023-03-08T08:05:10.913Z,99113.03
2023-03-08T08:07:38.669Z,99104.19
2023-03-08T08:10:08.886Z,99114.00
2023-03-08T08:12:36.640Z,99099.78
2023-03-08T08:15:04.673Z,99102.38
2023-03-08T08:17:32.417Z,99092.44
2023-03-08T08:20:00.561Z,99085.22
2023-03-08T08:22:28.388Z,99081.56
2023-03-08T08:24:56.054Z,99072.47
2023-03-08T08:27:25.125Z,99066.97
2023-03-08T08:29:52.832Z,99072.38
2023-03-08T08:32:20.696Z,99058.78
2023-03-08T08:34:48.463Z,99055.13
2023-03-08T08:37:16.242Z,99044.34
2023-03-08T08:39:44.182Z,99044.22
2023-03-08T08:42:11.976Z,99032.59
2023-03-08T08:44:41.048Z,99038.72
2023-03-08T08:47:08.806Z,99031.63
2023-03-08T08:49:36.631Z,99041.44
2023-03-08T08:52:05.329Z,99036.75
2023-03-08T08:54:33.855Z,99026.94
2023-03-08T08:57:01.605Z,99019.72
2023-03-08T08:59:29.376Z,99002.69
2023-03-08T09:01:58.592Z,99020.47
2023-03-08T09:04:26.544Z,99013.47
2023-03-08T09:06:54.517Z,98995.47
2023-03-08T09:09:22.254Z,98980.44
2023-03-08T09:11:55.170Z,98982.28
2023-03-08T09:14:24.012Z,98994.78
2023-03-08T09:16:52.570Z,98992.19
2023-03-08T09:19:21.973Z,98990.34
2023-03-08T09:21:49.699Z,98984.97
2023-03-08T09:24:17.736Z,98992.06
2023-03-08T09:26:45.507Z,98980.31
2023-03-08T09:29:13.297Z,98973.06
2023-03-08T09:31:42.353Z,98968.44
2023-03-08T09:34:13.460Z,98970.91
2023-03-08T09:36:43.260Z,98962.69
2023-03-08T09:39:14.006Z,98959.88
2023-03-08T09:41:48.139Z,98960.47
2023-03-08T09:44:43.763Z,98963.06
2023-03-08T09:47:17.488Z,98963.06
2023-03-08T09:49:47.843Z,98968.22
2023-03-08T09:52:23.845Z,98966.13
2023-03-08T09:54:52.575Z,98962.56
2023-03-08T09:57:25.295Z,98962.34
2023-03-08T09:59:56.357Z,98958.78
2023-03-08T10:02:37.190Z,98960.13
2023-03-08T10:05:14.320Z,98957.53
2023-03-08T10:07:52.005Z,98942.97
2023-03-08T10:10:34.531Z,98942.00
2023-03-08T10:13:19.967Z,98949.44
2023-03-08T10:15:52.346Z,98950.19
2023-03-08T10:18:36.115Z,98944.91
2023-03-08T10:21:04.422Z,98943.19
2023-03-08T10:23:34.390Z,98931.44
2023-03-08T10:26:03.597Z,98932.31
2023-03-08T10:28:31.330Z,98932.41
2023-03-08T10:31:00.795Z,98933.44
2023-03-08T10:33:34.362Z,98936.84
2023-03-08T10:36:06.257Z,98940.38
2023-03-08T10:38:38.376Z,98934.03
2023-03-08T10:41:08.110Z,98928.63
2023-03-08T10:43:40.674Z,98921.28
2023-03-08T10:46:14.304Z,98913.09
2023-03-08T10:48:42.576Z,98921.03
2023-03-08T10:51:18.555Z,98916.13
2023-03-08T10:53:55.944Z,98912.34
2023-03-08T10:56:27.588Z,98895.03
2023-03-08T10:58:57.102Z,98887.69
2023-03-08T11:01:27.468Z,98883.91
2023-03-08T11:04:03.358Z,98883.50
2023-03-08T11:06:31.732Z,98890.75
2023-03-08T11:09:04.492Z,98885.97
2023-03-08T11:11:41.874Z,98876.91
2023-03-08T11:14:12.009Z,98883.84
2023-03-08T11:17:06.864Z,98893.53
2023-03-08T11:19:54.016Z,98894.28
2023-03-08T11:22:33.859Z,98903.09
2023-03-08T11:25:14.133Z,98906.50
2023-03-08T11:27:54.809Z,98898.31
2023-03-08T11:30:33.658Z,98892.78
2023-03-08T11:33:27.517Z,98882.84
2023-03-08T11:36:02.202Z,98863.84
2023-03-08T11:38:31.803Z,98870.81
2023-03-08T11:41:10.252Z,98871.44
2023-03-08T11:43:58.560Z,98873.16
2023-03-08T11:46:32.425Z,98879.53
2023-03-08T11:49:16.703Z,98886.25
2023-03-08T11:51:52.178Z,98893.34
2023-03-08T11:54:34.206Z,98883.16
2023-03-08T11:57:05.300Z,98867.84
2023-03-08T11:59:36.770Z,98868.44
2023-03-08T12:02:16.569Z,98857.38
2023-03-08T12:04:51.174Z,98869.91
2023-03-08T12:07:24.514Z,98868.75
2023-03-08T12:10:00.743Z,98866.56
2023-03-08T12:12:32.315Z,98868.25
2023-03-08T12:15:14.717Z,98863.56
2023-03-08T12:17:47.621Z,98859.03
2023-03-08T12:20:16.489Z,98856.09
2023-03-08T12:22:47.616Z,98847.75
2023-03-08T12:25:27.645Z,98842.06
2023-03-08T12:28:01.816Z,98842.91
2023-03-08T12:30:42.724Z,98832.84
2023-03-08T12:33:14.052Z,98836.41
2023-03-08T12:35:52.133Z,98830.75
2023-03-08T12:38:31.876Z,98832.44
2023-03-08T12:40:59.878Z,98832.59
2023-03-08T12:43:34.253Z,98832.31
2023-03-08T12:46:06.464Z,98835.03
2023-03-08T12:48:37.666Z,98838.00
2023-03-08T12:51:18.730Z,98835.88
2023-03-08T12:53:59.066Z,98824.09
2023-03-08T12:56:31.527Z,98818.69
2023-03-08T12:59:02.168Z,98821.41
2023-03-08T13:01:36.485Z,98830.22
2023-03-08T13:04:06.369Z,98834.47
2023-03-08T13:07:15.888Z,98825.69
2023-03-08T13:09:55.048Z,98815.75
2023-03-08T13:12:35.089Z,98814.16
2023-03-08T13:15:21.991Z,98812.19
2023-03-08T13:17:52.705Z,98809.63
2023-03-08T13:20:24.819Z,98807.91
2023-03-08T13:23:03.846Z,98809.88
2023-03-08T13:25:44.469Z,98816.00
2023-03-08T13:28:14.986Z,98810.72
2023-03-08T13:30:51.970Z,98804.22
2023-03-08T13:33:22.921Z,98803.47
2023-03-08T13:35:59.220Z,98800.66
2023-03-08T13:38:29.957Z,98799.19
2023-03-08T13:40:59.380Z,98792.69
2023-03-08T13:43:28.975Z,98791.81
2023-03-08T13:46:00.820Z,98790.84
2023-03-08T13:48:31.633Z,98797.97
2023-03-08T13:51:00.533Z,98804.34
2023-03-08T13:53:30.954Z,98800.53
2023-03-08T13:56:01.026Z,98790.72
2023-03-08T13:58:41.339Z,98792.44
2023-03-08T14:01:14.663Z,98782.63
2023-03-08T14:03:43.675Z,98771.94
2023-03-08T14:06:23.904Z,98773.78
2023-03-08T14:08:54.372Z,98782.00
2023-03-08T14:11:24.234Z,98780.19
2023-03-08T14:13:54.813Z,98779.19
2023-03-08T14:16:31.192Z,98783.72
2023-03-08T14:19:00.374Z,98780.31
2023-03-08T14:21:30.023Z,98775.75
2023-03-08T14:24:00.564Z,98778.47
2023-03-08T14:26:31.911Z,98761.41
2023-03-08T14:29:13.825Z,98760.44
2023-03-08T14:31:53.950Z,98756.88
2023-03-08T14:34:24.574Z,98759.84
2023-03-08T14:36:56.481Z,98757.16
2023-03-08T14:39:26.632Z,98750.59
2023-03-08T14:41:55.587Z,98748.78
2023-03-08T14:44:27.169Z,98755.03
2023-03-08T14:46:59.220Z,98747.91
2023-03-08T14:49:29.625Z,98738.81
2023-03-08T14:51:57.487Z,98747.91
2023-03-08T14:54:34.097Z,98757.47
2023-03-08T14:57:17.635Z,98762.00
2023-03-08T14:59:45.578Z,98753.19
2023-03-08T15:02:16.383Z,98750.34
2023-03-08T15:04:45.610Z,98753.78
2023-03-08T15:07:20.566Z,98757.22
2023-03-08T15:09:49.409Z,98745.81
2023-03-08T15:12:17.781Z,98747.53
2023-03-08T15:14:46.059Z,98752.06
2023-03-08T15:17:15.184Z,98754.63
2023-03-08T15:19:43.062Z,98748.38
2023-03-08T15:22:13.880Z,98748.38
2023-03-08T15:24:42.030Z,98748.38
2023-03-08T15:27:16.284Z,98751.94
2023-03-08T15:29:44.326Z,98751.81
2023-03-08T15:32:12.156Z,98746.78
2023-03-08T15:34:41.826Z,98742.13
2023-03-08T15:37:14.852Z,98753.78
2023-03-08T15:39:42.437Z,98745.84
2023-03-08T15:42:10.192Z,98741.94
2023-03-08T15:44:38.039Z,98743.25
2023-03-08T15:47:06.035Z,98747.91
2023-03-08T15:49:34.342Z,98746.78
2023-03-08T15:52:03.643Z,98750.59
2023-03-08T15:54:31.821Z,98746.78
2023-03-08T15:56:59.554Z,98757.72
2023-03-08T15:59:27.400Z,98759.56
2023-03-08T16:01:55.212Z,98753.31
2023-03-08T16:04:23.003Z,98758.88
2023-03-08T16:06:50.776Z,98765.97
2023-03-08T16:09:19.904Z,98760.28
2023-03-08T16:11:48.240Z,98762.25
2023-03-08T16:14:18.031Z,98759.56
2023-03-08T16:16:46.287Z,98763.00
2023-03-08T16:19:14.445Z,98770.97
2023-03-08T16:21:42.193Z,98770.97
2023-03-08T16:24:11.028Z,98762.25
2023-03-08T16:26:40.232Z,98756.88
2023-03-08T16:29:07.963Z,98755.03
2023-03-08T16:31:35.995Z,98757.59
2023-03-08T16:34:04.408Z,98761.28
2023-03-08T16:36:32.251Z,98762.13
2023-03-08T16:39:00.273Z,98759.44
2023-03-08T16:41:29.988Z,98756.88
2023-03-08T16:43:59.601Z,98752.19
2023-03-08T16:46:27.863Z,98741.41
2023-03-08T16:48:56.685Z,98748.78
2023-03-08T16:51:26.694Z,98742.25
2023-03-08T16:53:55.280Z,98743.53
2023-03-08T16:56:24.503Z,98757.72
2023-03-08T16:58:54.045Z,98757.72
2023-03-08T17:01:24.236Z,98751.47
2023-03-08T17:03:52.905Z,98751.47
2023-03-08T17:06:22.555Z,98745.09
2023-03-08T17:08:50.524Z,98748.06
2023-03-08T17:11:19.080Z,98746.22
2023-03-08T17:13:50.921Z,98748.06
2023-03-08T17:16:19.069Z,98742.06
2023-03-08T17:18:48.713Z,98738.50
2023-03-08T17:21:17.160Z,98742.94
2023-03-08T17:23:45.064Z,98747.59
2023-03-08T17:26:14.594Z,98741.34
2023-03-08T17:28:42.663Z,98746.75
2023-03-08T17:31:12.237Z,98751.03
2023-03-08T17:33:40.545Z,98743.06
2023-03-08T17:36:10.786Z,98744.66
2023-03-08T17:38:38.675Z,98740.22
2023-03-08T17:41:07.874Z,98736.41
2023-03-08T17:43:36.106Z,98731.41
2023-03-08T17:46:05.790Z,98738.25
2023-03-08T17:48:34.632Z,98733.84
2023-03-08T17:51:03.220Z,98736.78
2023-03-08T17:53:32.551Z,98733.25
2023-03-08T17:56:01.819Z,98733.41
2023-03-08T17:58:30.152Z,98735.94
2023-03-08T18:00:58.128Z,98742.31
2023-03-08T18:03:25.897Z,98738.81
2023-03-08T18:05:54.433Z,98753.13
2023-03-08T18:08:22.213Z,98750.41
2023-03-08T18:10:51.300Z,98755.69
2023-03-08T18:13:19.051Z,98753.84
2023-03-08T18:15:46.819Z,98751.16
2023-03-08T18:18:14.545Z,98746.63
2023-03-08T18:20:42.289Z,98743.91
2023-03-08T18:23:10.306Z,98743.78
2023-03-08T18:25:39.468Z,98736.78
2023-03-08T18:28:08.980Z,98744.78
2023-03-08T18:30:38.448Z,98743.19
2023-03-08T18:33:06.345Z,98735.63
2023-03-08T18:35:34.496Z,98730.09
2023-03-08T18:38:02.980Z,98730.34
2023-03-08T18:40:31.039Z,98732.06
2023-03-08T18:42:59.003Z,98735.19
2023-03-08T18:45:28.196Z,98729.78
2023-03-08T18:47:56.217Z,98727.22
2023-03-08T18:50:25.105Z,98718.69
2023-03-08T18:52:52.864Z,98732.16
2023-03-08T18:55:20.585Z,98731.31
2023-03-08T18:57:48.372Z,98733.28
2023-03-08T19:00:17.550Z,98733.16
2023-03-08T19:02:46.766Z,98739.41
2023-03-08T19:05:14.557Z,98731.44
2023-03-08T19:07:42.362Z,98724.44
2023-03-08T19:10:14.720Z,98722.47
2023-03-08T19:12:43.667Z,98732.53
2023-03-08T19:15:12.836Z,98727.16
2023-03-08T19:17:40.767Z,98728.13
2023-03-08T19:20:11.542Z,98717.09
2023-03-08T19:22:39.764Z,98706.69
2023-03-08T19:25:08.546Z,98711.94
2023-03-08T19:27:36.482Z,98713.78
2023-03-08T19:30:04.798Z,98722.00
2023-03-08T19:32:32.825Z,98700.59
2023-03-08T19:35:01.720Z,98698.59
2023-03-08T19:37:31.432Z,98693.91
2023-03-08T19:40:01.210Z,98710.97
2023-03-08T19:42:29.499Z,98710.97
2023-03-08T19:44:57.237Z,98718.94
2023-03-08T19:47:25.003Z,98707.28
2023-03-08T19:49:52.957Z,98699.19
2023-03-08T19:52:20.843Z,98705.31
2023-03-08T19:54:49.967Z,98711.41
2023-03-08T19:57:17.787Z,98706.88
2023-03-08T19:59:45.502Z,98700.47
2023-03-08T20:02:14.003Z,98708.44
2023-03-08T20:04:44.858Z,98713.00
2023-03-08T20:07:12.626Z,98716.28
2023-03-08T20:09:42.262Z,98703.53
2023-03-08T20:12:11.454Z,98700.84
2023-03-08T20:14:39.293Z,98694.28
2023-03-08T20:17:07.157Z,98696.13
2023-03-08T20:19:35.781Z,98687.06
2023-03-08T20:22:05.114Z,98687.78
2023-03-08T20:24:32.916Z,98695.88
2023-03-08T20:27:00.686Z,98687.78
2023-03-08T20:29:29.776Z,98691.22
2023-03-08T20:31:58.502Z,98695.75
2023-03-08T20:34:27.083Z,98689.38
2023-03-08T20:36:54.874Z,98694.75
2023-03-08T20:39:23.760Z,98686.66
2023-03-08T20:41:51.539Z,98701.72
2023-03-08T20:44:19.284Z,98693.50
2023-03-08T20:46:50.026Z,98691.53
2023-03-08T20:49:17.855Z,98700.47
2023-03-08T20:51:45.734Z,98693.09
2023-03-08T20:54:13.653Z,98680.44
2023-03-08T20:56:41.441Z,98690.25
2023-03-08T20:59:09.294Z,98685.81
2023-03-08T21:01:37.358Z,98690.13
2023-03-08T21:04:07.480Z,98688.28
2023-03-08T21:06:35.245Z,98678.47
2023-03-08T21:09:03.492Z,98681.16
2023-03-08T21:11:31.571Z,98674.91
2023-03-08T21:13:59.458Z,98673.19
2023-03-08T21:16:28.490Z,98665.09
2023-03-08T21:18:58.114Z,98668.81
2023-03-08T21:21:30.196Z,98666.13
2023-03-08T21:23:59.728Z,98668.22
2023-03-08T21:26:28.822Z,98678.03
2023-03-08T21:28:58.209Z,98667.22
2023-03-08T21:31:26.478Z,98666.25
2023-03-08T21:33:54.551Z,98661.69
2023-03-08T21:36:22.423Z,98659.84
2023-03-08T21:38:53.561Z,98650.75
2023-03-08T21:41:23.779Z,98649.75
2023-03-08T21:43:51.580Z,98634.53
2023-03-08T21:46:20.130Z,98625.47
2023-03-08T21:48:48.371Z,98624.59
2023-03-08T21:51:17.098Z,98627.16
2023-03-08T21:53:45.257Z,98623.75
2023-03-08T21:56:16.316Z,98619.06
2023-03-08T21:58:44.466Z,98615.53
2023-03-08T22:01:20.042Z,98624.34
2023-03-08T22:03:48.116Z,98610.13
2023-03-08T22:06:16.191Z,98603.88
2023-03-08T22:08:44.046Z,98598.47
2023-03-08T22:11:11.791Z,98600.31
2023-03-08T22:13:40.967Z,98595.94
2023-03-08T22:16:09.597Z,98599.44
2023-03-08T22:18:37.436Z,98592.38
2023-03-08T22:21:05.397Z,98587.09
2023-03-08T22:23:33.261Z,98584.41
2023-03-08T22:26:01.045Z,98584.41
2023-03-08T22:28:28.859Z,98576.44
2023-03-08T22:30:57.943Z,98570.91
2023-03-08T22:33:25.719Z,98554.25
2023-03-08T22:35:53.515Z,98541.63
2023-03-08T22:38:21.354Z,98543.47
2023-03-08T22:40:49.065Z,98549.72
2023-03-08T22:43:18.033Z,98547.88
2023-03-08T22:45:46.003Z,98555.84
2023-03-08T22:48:15.139Z,98553.88
2023-03-08T22:50:42.914Z,98551.16
2023-03-08T22:53:10.796Z,98544.78
2023-03-08T22:55:38.505Z,98541.94
2023-03-08T22:58:06.270Z,98536.56
2023-03-08T23:00:34.014Z,98516.63
2023-03-08T23:03:01.847Z,98511.97
2023-03-08T23:05:30.953Z,98511.81
2023-03-08T23:07:58.788Z,98518.09
2023-03-08T23:10:26.526Z,98519.66
2023-03-08T23:12:54.355Z,98524.03
2023-03-08T23:15:22.154Z,98533.72
2023-03-08T23:17:49.960Z,98542.53
2023-03-08T23:20:19.899Z,98559.44
2023-03-08T23:22:50.282Z,98543.94
2023-03-08T23:25:18.552Z,98550.19
2023-03-08T23:27:46.297Z,98538.41
2023-03-08T23:30:16.125Z,98523.78
2023-03-08T23:32:43.893Z,98513.00
2023-03-08T23:35:12.825Z,98519.25
2023-03-08T23:37:40.643Z,98504.88
2023-03-08T23:40:12.448Z,98498.63
2023-03-08T23:42:40.258Z,98507.72
2023-03-08T23:45:09.329Z,98503.19
2023-03-08T23:47:37.524Z,98506.88
2023-03-08T23:50:06.579Z,98518.53
2023-03-08T23:52:34.442Z,98521.22
2023-03-08T23:55:02.321Z,98524.78
2023-03-08T23:57:31.998Z,98526.34
2023-03-08T23:59:59.775Z,98530.91
